ADDS METAR Data INFO
IDs: Format: Raw Decoded Include TAF

Data at: 2341 UTC 15 Dec 2017

KMYJ 152335Z AUTO 00000KT 10SM CLR 01/M06 A3002 RMK AO2
KMYJ 152215Z AUTO 23009KT 10SM CLR 04/M06 A3004 RMK AO2
KMYJ 152055Z AUTO 25010G17KT 10SM CLR 05/M06 A3004 RMK AO2
KMYJ 152035Z AUTO 25010G15KT 10SM CLR 05/M07 A3004 RMK AO2
KMYJ 152015Z AUTO 27011G15KT 10SM CLR 05/M07 A3004 RMK AO2
KMYJ 151735Z AUTO 29010KT 10SM CLR 03/M06 A3011 RMK AO2
KMYJ 151715Z AUTO 27011KT 10SM CLR 03/M06 A3011 RMK AO2
KMYJ 151555Z AUTO 29009G16KT 7SM CLR 01/M05 A3011 RMK AO2
KMYJ 151535Z AUTO 31009G16KT 7SM SCT050 01/M04 A3010 RMK AO2
KMYJ 151415Z AUTO 00000KT 10SM OVC060 00/M04 A3010 RMK AO2
KMYJ 151255Z AUTO 00000KT 10SM SCT034 SCT040 OVC060 00/M04 A3009 RMK AO2
KMYJ 151135Z AUTO 00000KT 10SM OVC037 M01/M05 A3009 RMK AO2
KMYJ 151115Z AUTO 00000KT 10SM BKN037 OVC049 M01/M05 A3008 RMK AO2
KMYJ 150955Z AUTO 00000KT 10SM OVC049 M02/M05 A3009 RMK AO2
KMYJ 150815Z AUTO 00000KT 10SM OVC031 M01/M05 A3010 RMK AO2
KMYJ 150655Z AUTO 00000KT 10SM OVC033 M01/M05 A3009 RMK AO2
KMYJ 150635Z AUTO 00000KT 10SM OVC033 M01/M05 A3010 RMK AO2
KMYJ 150515Z AUTO 00000KT 7SM OVC037 M02/M05 A3012 RMK AO2
KMYJ 150355Z AUTO 00000KT 10SM OVC037 M02/M05 A3012 RMK AO2
KMYJ 150115Z AUTO 00000KT 10SM OVC035 M02/M06 A3012 RMK AO2
KMYJ 150055Z AUTO 00000KT 10SM OVC035 M02/M06 A3012 RMK AO2
KMYJ 142335Z AUTO 00000KT 10SM OVC029 M02/M07 A3010 RMK AO2
KMYJ 142215Z AUTO 00000KT 7SM OVC029 M01/M07 A3010 RMK AO2
KMYJ 142155Z AUTO 00000KT 10SM OVC029 M01/M07 A3009 RMK AO2
KMYJ 142135Z AUTO 00000KT 7SM OVC029 M01/M07 A3009 RMK AO2
KMYJ 142115Z AUTO 00000KT 10SM OVC029 M01/M07 A3008 RMK AO2
KMYJ 142055Z AUTO 00000KT 7SM OVC029 M01/M07 A3008 RMK AO2
KMYJ 142035Z AUTO 00000KT 7SM OVC027 M01/M07 A3008 RMK AO2
KMYJ 141815Z AUTO 00000KT 10SM OVC025 M01/M06 A3009 RMK AO2
KMYJ 141755Z AUTO 00000KT 10SM OVC025 M01/M07 A3009 RMK AO2
KMYJ 141735Z AUTO 00000KT 7SM OVC025 M01/M07 A3010 RMK AO2
KMYJ 141715Z AUTO 00000KT 7SM OVC025 M01/M07 A3010 RMK AO2
KMYJ 141655Z AUTO 00000KT 10SM OVC025 M01/M06 A3010 RMK AO2
KMYJ 141635Z AUTO 00000KT 10SM OVC027 M01/M06 A3010 RMK AO2
KMYJ 141615Z AUTO 00000KT 10SM OVC025 M02/M06 A3009 RMK AO2
KMYJ 141555Z AUTO 00000KT 10SM OVC025 M02/M06 A3009 RMK AO2
KMYJ 141435Z AUTO 00000KT 7SM OVC025 M02/M06 A3006 RMK AO2
KMYJ 141415Z AUTO 00000KT 7SM OVC027 M02/M06 A3005 RMK AO2
KMYJ 141355Z AUTO 00000KT 10SM OVC027 M01/M06 A3005 RMK AO2
KMYJ 141335Z AUTO 00000KT 10SM OVC027 M01/M06 A3004 RMK AO2
KMYJ 141215Z AUTO 00000KT 10SM OVC027 00/M05 A3001 RMK AO2
KMYJ 141155Z AUTO 00000KT 10SM OVC029 00/M05 A2999 RMK AO2